createdAt,value
2018-06-17T00:00:36.990Z,4.00
2018-06-17T00:03:05.932Z,4.43
2018-06-17T00:05:34.902Z,4.93
2018-06-17T00:08:03.995Z,3.50
2018-06-17T00:10:33.064Z,4.57
2018-06-17T00:13:02.135Z,4.33
2018-06-17T00:15:30.869Z,4.00
2018-06-17T00:17:59.845Z,3.93
2018-06-17T00:20:28.923Z,3.93
2018-06-17T00:22:57.647Z,3.70
2018-06-17T00:25:26.295Z,3.30
2018-06-17T00:27:55.271Z,3.87
2018-06-17T00:30:24.652Z,3.27
2018-06-17T00:32:53.401Z,3.53
2018-06-17T00:35:22.865Z,2.93
2018-06-17T00:37:52.115Z,3.00
2018-06-17T00:40:20.858Z,3.53
2018-06-17T00:42:49.703Z,3.20
2018-06-17T00:45:18.559Z,3.57
2018-06-17T00:47:47.544Z,3.27
2018-06-17T00:50:16.375Z,3.47
2018-06-17T00:52:45.384Z,3.37
2018-06-17T00:55:14.104Z,3.63
2018-06-17T00:57:44.263Z,2.77
2018-06-17T01:00:13.255Z,2.90
2018-06-17T01:02:42.427Z,3.23
2018-06-17T01:05:11.509Z,3.10
2018-06-17T01:07:40.269Z,3.37
2018-06-17T01:10:09.822Z,3.97
2018-06-17T01:12:39.325Z,3.23
2018-06-17T01:15:08.863Z,3.50
2018-06-17T01:17:37.902Z,3.40
2018-06-17T01:20:07.850Z,3.20
2018-06-17T01:22:37.523Z,3.27
2018-06-17T01:25:06.414Z,2.97
2018-06-17T01:27:35.746Z,3.60
2018-06-17T01:30:04.998Z,2.70
2018-06-17T01:32:33.995Z,4.07
2018-06-17T01:35:02.776Z,3.57
2018-06-17T01:37:31.731Z,3.20
2018-06-17T01:40:00.811Z,3.80
2018-06-17T01:42:29.571Z,3.30
2018-06-17T01:44:58.224Z,3.47
2018-06-17T01:47:27.462Z,4.57
2018-06-17T01:49:56.210Z,3.40
2018-06-17T01:52:24.850Z,2.90
2018-06-17T01:54:53.515Z,2.93
2018-06-17T01:57:22.509Z,3.30
2018-06-17T01:59:51.588Z,2.77
2018-06-17T02:02:20.310Z,3.50
2018-06-17T02:04:54.483Z,3.43
2018-06-17T02:07:28.768Z,3.67
2018-06-17T02:10:03.067Z,2.83
2018-06-17T02:12:32.172Z,3.00
2018-06-17T02:15:01.366Z,3.17
2018-06-17T02:17:30.514Z,3.37
2018-06-17T02:19:59.575Z,3.00
2018-06-17T02:22:28.656Z,2.77
2018-06-17T02:24:58.043Z,2.73
2018-06-17T02:27:27.138Z,2.43
2018-06-17T02:29:56.174Z,2.33
2018-06-17T02:32:25.263Z,2.10
2018-06-17T02:34:54.546Z,2.30
2018-06-17T02:37:23.607Z,2.57
2018-06-17T02:39:52.756Z,2.50
2018-06-17T02:42:21.816Z,2.70
2018-06-17T02:44:56.223Z,2.47
2018-06-17T02:47:30.438Z,2.50
2018-06-17T02:52:06.641Z,2.27
2018-06-17T02:54:45.987Z,2.20
2018-06-17T02:57:16.473Z,1.83
2018-06-17T02:59:46.123Z,2.10
2018-06-17T03:02:15.633Z,2.00
2018-06-17T03:04:44.598Z,1.80
2018-06-17T03:07:13.591Z,2.00
2018-06-17T03:09:42.679Z,2.10
2018-06-17T03:12:11.594Z,1.93
2018-06-17T03:14:40.587Z,2.07
2018-06-17T03:17:09.658Z,2.27
2018-06-17T03:19:38.636Z,2.13
2018-06-17T03:22:07.699Z,2.17
2018-06-17T03:24:41.986Z,2.50
2018-06-17T03:27:16.119Z,2.27
2018-06-17T03:29:50.292Z,2.57
2018-06-17T03:32:24.392Z,2.47
2018-06-17T03:34:58.283Z,2.60
2018-06-17T03:37:27.283Z,2.20
2018-06-17T03:39:56.332Z,2.20
2018-06-17T03:42:25.754Z,2.17
2018-06-17T03:44:54.487Z,2.03
2018-06-17T03:47:23.636Z,3.00
2018-06-17T03:49:52.724Z,2.60
2018-06-17T03:52:21.784Z,2.77
2018-06-17T03:54:50.849Z,2.47
2018-06-17T03:57:19.899Z,2.50
2018-06-17T03:59:49.299Z,2.73
2018-06-17T04:02:18.059Z,2.67
2018-06-17T04:04:52.270Z,3.40
2018-06-17T04:07:21.427Z,3.03
2018-06-17T04:09:50.154Z,2.93
2018-06-17T04:12:19.140Z,2.43
2018-06-17T04:14:48.189Z,3.10
2018-06-17T04:17:17.268Z,3.93
2018-06-17T04:19:46.784Z,3.20
2018-06-17T04:22:16.052Z,3.33
2018-06-17T04:24:45.115Z,4.03
2018-06-17T04:27:13.839Z,3.83
2018-06-17T04:29:42.799Z,3.37
2018-06-17T04:32:11.739Z,3.93
2018-06-17T04:34:40.697Z,4.30
2018-06-17T04:37:09.763Z,4.10
2018-06-17T04:39:38.805Z,3.60
2018-06-17T04:42:07.538Z,4.33
2018-06-17T04:44:36.180Z,4.13
2018-06-17T04:47:05.230Z,4.60
2018-06-17T04:49:34.315Z,3.80
2018-06-17T04:52:03.369Z,4.10
2018-06-17T04:54:32.435Z,3.37
2018-06-17T04:57:01.500Z,3.60
2018-06-17T04:59:30.552Z,3.10
2018-06-17T05:01:59.288Z,4.50
2018-06-17T05:04:28.259Z,3.80
2018-06-17T05:06:57.299Z,3.40
2018-06-17T05:09:26.017Z,3.73
2018-06-17T05:11:54.667Z,3.50
2018-06-17T05:14:23.322Z,2.93
2018-06-17T05:16:52.424Z,2.50
2018-06-17T05:19:21.591Z,2.70
2018-06-17T05:21:50.324Z,2.40
2018-06-17T05:24:19.304Z,2.40
2018-06-17T05:26:48.444Z,2.97
2018-06-17T05:29:17.500Z,2.67
2018-06-17T05:31:46.227Z,1.80
2018-06-17T05:34:14.886Z,2.40
2018-06-17T05:36:43.867Z,2.83
2018-06-17T05:39:13.898Z,2.70
2018-06-17T05:41:42.897Z,3.43
2018-06-17T05:44:11.875Z,2.77
2018-06-17T05:46:40.948Z,2.93
2018-06-17T05:49:10.008Z,2.13
2018-06-17T05:51:38.747Z,2.90
2018-06-17T05:54:07.378Z,2.50
2018-06-17T05:56:36.364Z,2.87
2018-06-17T05:59:05.615Z,3.17
2018-06-17T06:01:34.345Z,3.10
2018-06-17T06:04:03.012Z,2.47
2018-06-17T06:06:31.991Z,3.20
2018-06-17T06:09:01.083Z,3.13
2018-06-17T06:11:29.813Z,3.10
2018-06-17T06:13:58.791Z,2.73
2018-06-17T06:16:27.544Z,3.63
2018-06-17T06:18:56.182Z,2.60
2018-06-17T06:21:24.842Z,2.50
2018-06-17T06:23:53.830Z,2.83
2018-06-17T06:26:22.911Z,2.77
2018-06-17T06:28:52.288Z,2.90
2018-06-17T06:31:21.355Z,2.60
2018-06-17T06:33:50.467Z,2.60
2018-06-17T06:36:19.556Z,2.80
2018-06-17T06:38:48.649Z,3.10
2018-06-17T06:41:17.510Z,2.47
2018-06-17T06:43:46.507Z,2.27
2018-06-17T06:46:15.579Z,2.60
2018-06-17T06:48:44.974Z,2.80
2018-06-17T06:51:14.039Z,2.67
2018-06-17T06:53:43.087Z,2.53
2018-06-17T06:56:11.826Z,2.93
2018-06-17T06:58:40.484Z,2.90
2018-06-17T07:01:09.543Z,2.80
2018-06-17T07:03:43.999Z,3.00
2018-06-17T07:06:25.111Z,2.40
2018-06-17T07:10:07.871Z,2.60
2018-06-17T07:12:36.999Z,2.50
2018-06-17T07:15:06.096Z,2.60
2018-06-17T07:18:48.704Z,2.70
2018-06-17T07:21:17.445Z,2.80
2018-06-17T07:23:46.484Z,2.57
2018-06-17T07:26:21.394Z,2.80
2018-06-17T07:29:01.564Z,2.60
2018-06-17T07:31:30.656Z,2.60
2018-06-17T07:33:59.987Z,2.77
2018-06-17T07:36:28.839Z,2.87
2018-06-17T07:38:58.896Z,3.43
2018-06-17T07:41:28.126Z,2.33
2018-06-17T07:43:56.782Z,2.57
2018-06-17T07:46:25.439Z,2.73
2018-06-17T07:49:32.968Z,2.90
2018-06-17T07:52:08.835Z,2.57
2018-06-17T07:54:38.768Z,3.93
2018-06-17T07:57:08.353Z,4.03
2018-06-17T07:59:37.135Z,3.43
2018-06-17T08:02:07.159Z,3.10
2018-06-17T08:04:36.249Z,2.87
2018-06-17T08:07:05.332Z,2.70
2018-06-17T08:09:34.388Z,2.13
2018-06-17T08:12:04.032Z,2.70
2018-06-17T08:14:33.155Z,3.23
2018-06-17T08:17:01.971Z,2.70
2018-06-17T08:19:31.125Z,2.10
2018-06-17T08:22:00.658Z,2.83
2018-06-17T08:24:29.947Z,3.10
2018-06-17T08:26:59.040Z,3.00
2018-06-17T08:29:27.954Z,2.80
2018-06-17T08:31:57.236Z,2.80
2018-06-17T08:34:26.040Z,2.40
2018-06-17T08:36:54.671Z,2.47
2018-06-17T08:39:24.247Z,2.90
2018-06-17T08:41:52.899Z,2.97
2018-06-17T08:44:22.493Z,2.97
2018-06-17T08:46:52.107Z,3.00
2018-06-17T08:49:21.128Z,2.90
2018-06-17T08:51:49.790Z,2.57
2018-06-17T08:54:18.786Z,3.07
2018-06-17T08:56:48.065Z,2.53
2018-06-17T08:59:17.136Z,2.93
2018-06-17T09:01:45.883Z,2.33
2018-06-17T09:04:14.515Z,2.43
2018-06-17T09:06:43.502Z,2.50
2018-06-17T09:09:12.888Z,2.83
2018-06-17T09:11:41.547Z,3.33
2018-06-17T09:14:10.562Z,2.80
2018-06-17T09:16:39.651Z,3.00
2018-06-17T09:19:08.607Z,3.00
2018-06-17T09:21:37.379Z,2.83
2018-06-17T09:24:06.476Z,2.97
2018-06-17T09:26:35.184Z,2.87
2018-06-17T09:29:04.237Z,2.83
2018-06-17T09:31:33.308Z,2.70
2018-06-17T09:34:02.037Z,3.10
2018-06-17T09:36:30.696Z,2.73
2018-06-17T09:38:59.355Z,2.77
2018-06-17T09:41:28.035Z,3.17
2018-06-17T09:43:57.127Z,3.20
2018-06-17T09:46:25.859Z,3.00
2018-06-17T09:48:54.876Z,2.93
2018-06-17T09:51:23.653Z,3.40
2018-06-17T09:53:52.287Z,3.13
2018-06-17T09:56:20.945Z,3.50
2018-06-17T09:58:49.949Z,2.97
2018-06-17T10:01:19.074Z,3.60
2018-06-17T10:03:48.148Z,3.30
2018-06-17T10:06:16.866Z,3.33
2018-06-17T10:08:45.842Z,3.50
2018-06-17T10:11:14.591Z,3.10
2018-06-17T10:13:44.158Z,3.37
2018-06-17T10:16:13.466Z,2.70
2018-06-17T10:18:42.139Z,3.37
2018-06-17T10:21:11.776Z,3.20
2018-06-17T10:23:40.459Z,3.30
2018-06-17T10:26:09.496Z,3.50
2018-06-17T10:28:38.539Z,3.40
2018-06-17T10:31:07.739Z,2.90
2018-06-17T10:33:37.034Z,3.57
2018-06-17T10:36:06.171Z,3.10
2018-06-17T10:38:34.908Z,4.00
2018-06-17T10:41:03.621Z,3.27
2018-06-17T10:43:32.973Z,3.70
2018-06-17T10:46:01.552Z,2.83
2018-06-17T10:48:30.199Z,3.67
2018-06-17T10:50:59.207Z,3.73
2018-06-17T10:53:27.931Z,3.53
2018-06-17T10:55:57.066Z,3.60
2018-06-17T10:58:25.682Z,4.00
2018-06-17T11:00:54.341Z,3.87
2018-06-17T11:03:22.966Z,4.03
2018-06-17T11:05:52.161Z,3.90
2018-06-17T11:08:20.913Z,3.53
2018-06-17T11:10:49.928Z,3.80
2018-06-17T11:13:18.699Z,2.70
2018-06-17T11:15:47.528Z,3.07
2018-06-17T11:18:16.203Z,3.30
2018-06-17T11:20:44.888Z,3.60
2018-06-17T11:23:13.860Z,3.60
2018-06-17T11:25:42.583Z,3.03
2018-06-17T11:28:11.568Z,3.57
2018-06-17T11:30:41.006Z,3.30
2018-06-17T11:33:09.754Z,4.20
2018-06-17T11:35:38.780Z,3.33
2018-06-17T11:38:07.554Z,3.70
2018-06-17T11:40:36.811Z,3.80
2018-06-17T11:43:05.561Z,3.63
2018-06-17T11:45:34.217Z,4.70
2018-06-17T11:48:02.871Z,3.07
2018-06-17T11:50:31.546Z,3.70
2018-06-17T11:53:00.511Z,3.27
2018-06-17T11:55:29.243Z,3.40
2018-06-17T11:57:57.907Z,3.10
2018-06-17T12:00:26.906Z,3.57
2018-06-17T12:02:55.963Z,2.80
2018-06-17T12:05:24.707Z,3.33
2018-06-17T12:07:53.366Z,3.97
2018-06-17T12:10:22.030Z,3.63
2018-06-17T12:12:50.663Z,3.60
2018-06-17T12:15:19.299Z,3.50
2018-06-17T12:17:48.007Z,3.33
2018-06-17T12:20:16.647Z,3.83
2018-06-17T12:22:45.648Z,3.60
2018-06-17T12:25:14.736Z,4.13
2018-06-17T12:27:43.767Z,3.80
2018-06-17T12:30:12.591Z,4.13
2018-06-17T12:32:41.206Z,4.00
2018-06-17T12:35:09.841Z,4.13
2018-06-17T12:37:38.595Z,3.33
2018-06-17T12:40:07.314Z,3.50
2018-06-17T12:42:35.959Z,3.53
2018-06-17T12:45:05.160Z,3.23
2018-06-17T12:47:34.277Z,3.30
2018-06-17T12:50:03.582Z,3.10
2018-06-17T12:52:32.295Z,2.70
2018-06-17T12:55:01.300Z,3.17
2018-06-17T12:57:30.393Z,3.70
2018-06-17T12:59:59.092Z,3.60
2018-06-17T13:02:28.099Z,3.97
2018-06-17T13:04:56.907Z,4.07
2018-06-17T13:07:25.860Z,3.10
2018-06-17T13:09:54.873Z,3.10
2018-06-17T13:12:23.648Z,3.67
2018-06-17T13:14:52.417Z,3.67
2018-06-17T13:17:21.396Z,3.93
2018-06-17T13:19:51.016Z,3.00
2018-06-17T13:22:20.109Z,3.70
2018-06-17T13:24:48.830Z,3.10
2018-06-17T13:27:17.466Z,4.00
2018-06-17T13:29:46.435Z,3.73
2018-06-17T13:32:15.501Z,3.50
2018-06-17T13:34:44.565Z,3.43
2018-06-17T13:37:13.343Z,3.10
2018-06-17T13:39:41.997Z,2.97
2018-06-17T13:42:10.977Z,3.43
2018-06-17T13:44:39.715Z,3.00
2018-06-17T13:47:08.783Z,3.20
2018-06-17T13:49:37.763Z,2.80
2018-06-17T13:52:06.441Z,3.23
2018-06-17T13:54:35.442Z,4.20
2018-06-17T13:57:04.176Z,3.03
2018-06-17T13:59:33.004Z,3.47
2018-06-17T14:02:01.657Z,2.93
2018-06-17T14:04:30.644Z,3.60
2018-06-17T14:06:59.382Z,2.87
2018-06-17T14:09:28.360Z,3.47
2018-06-17T14:11:57.080Z,2.93
2018-06-17T14:14:26.061Z,3.07
2018-06-17T14:16:55.376Z,3.17
2018-06-17T14:19:24.123Z,3.13
2018-06-17T14:21:53.403Z,3.50
2018-06-17T14:24:22.578Z,2.83
2018-06-17T14:26:51.919Z,2.90
2018-06-17T14:29:21.008Z,2.77
2018-06-17T14:31:49.768Z,3.53
2018-06-17T14:34:18.435Z,3.50
2018-06-17T14:36:47.074Z,3.17
2018-06-17T14:39:16.055Z,3.50
2018-06-17T14:41:49.083Z,2.93
2018-06-17T14:44:23.135Z,3.63
2018-06-17T14:46:57.031Z,3.73
2018-06-17T14:49:31.142Z,3.60
2018-06-17T14:52:11.091Z,3.43
2018-06-17T14:54:39.758Z,3.70
2018-06-17T14:57:08.394Z,3.53
2018-06-17T14:59:37.495Z,3.23
2018-06-17T15:02:06.266Z,3.60
2018-06-17T15:04:35.267Z,3.87
2018-06-17T15:07:04.598Z,4.43
2018-06-17T15:09:33.332Z,3.67
2018-06-17T15:12:02.312Z,3.50
2018-06-17T15:14:32.353Z,4.30
2018-06-17T15:17:01.113Z,3.90
2018-06-17T15:19:29.788Z,3.93
2018-06-17T15:21:59.017Z,4.37
2018-06-17T15:24:27.817Z,4.27
2018-06-17T15:26:56.565Z,4.53
2018-06-17T15:29:25.534Z,4.43
2018-06-17T15:31:59.884Z,3.70
2018-06-17T15:34:34.312Z,5.03
2018-06-17T15:37:08.597Z,4.17
2018-06-17T15:39:42.772Z,3.80
2018-06-17T15:42:11.501Z,5.23
2018-06-17T15:44:40.183Z,4.47
2018-06-17T15:47:09.151Z,4.37
2018-06-17T15:49:38.128Z,3.43
2018-06-17T15:52:07.406Z,4.93
2018-06-17T15:54:36.487Z,4.33
2018-06-17T15:57:05.603Z,4.37
2018-06-17T15:59:34.860Z,4.77
2018-06-17T16:02:03.952Z,4.47
2018-06-17T16:04:32.720Z,3.67
2018-06-17T16:07:01.691Z,4.20
2018-06-17T16:09:30.454Z,3.80
2018-06-17T16:12:04.450Z,3.97
2018-06-17T16:14:38.944Z,3.97
2018-06-17T16:17:13.686Z,3.10
2018-06-17T16:19:48.075Z,3.67
2018-06-17T16:22:16.834Z,3.33
2018-06-17T16:24:45.485Z,3.53
2018-06-17T16:27:14.469Z,3.60
2018-06-17T16:29:43.480Z,3.07
2018-06-17T16:32:12.190Z,3.70
2018-06-17T16:34:40.808Z,3.57
2018-06-17T16:37:10.075Z,4.07
2018-06-17T16:39:39.147Z,3.40
2018-06-17T16:42:08.201Z,3.77
2018-06-17T16:44:36.898Z,3.20
2018-06-17T16:47:05.507Z,3.67
2018-06-17T16:49:34.158Z,3.47
2018-06-17T16:52:08.071Z,3.70
2018-06-17T16:54:42.416Z,3.50
2018-06-17T16:57:16.611Z,3.33
2018-06-17T17:00:10.072Z,3.00
2018-06-17T17:02:38.706Z,3.90
2018-06-17T17:05:07.535Z,3.50
2018-06-17T17:07:36.480Z,3.20
2018-06-17T17:10:05.228Z,3.63
2018-06-17T17:12:33.887Z,3.93
2018-06-17T17:15:02.541Z,3.93
2018-06-17T17:17:31.495Z,4.20
2018-06-17T17:20:00.198Z,3.40
2018-06-17T17:22:28.868Z,3.87
2018-06-17T17:24:57.470Z,3.90
2018-06-17T17:27:26.464Z,3.60
2018-06-17T17:29:55.178Z,3.57
2018-06-17T17:32:29.432Z,5.30
2018-06-17T17:35:03.611Z,4.30
2018-06-17T17:37:37.834Z,4.40
2018-06-17T17:40:12.036Z,4.13
2018-06-17T17:42:41.167Z,5.13
2018-06-17T17:45:15.352Z,4.63
2018-06-17T17:47:44.185Z,5.23
2018-06-17T17:50:12.824Z,4.80
2018-06-17T17:52:41.479Z,5.70
2018-06-17T17:55:10.456Z,5.90
2018-06-17T17:57:39.208Z,5.00
2018-06-17T18:00:08.604Z,5.67
2018-06-17T18:02:43.947Z,5.50
2018-06-17T18:05:13.216Z,6.30
2018-06-17T18:07:41.948Z,5.50
2018-06-17T18:10:10.656Z,6.67
2018-06-17T18:12:39.675Z,4.87
2018-06-17T18:15:08.395Z,5.40
2018-06-17T18:17:37.060Z,4.93
2018-06-17T18:20:05.703Z,5.57
2018-06-17T18:22:34.308Z,5.60
2018-06-17T18:25:08.251Z,4.47
2018-06-17T18:27:42.415Z,4.80
2018-06-17T18:30:16.492Z,5.43
2018-06-17T18:32:50.860Z,4.70
2018-06-17T18:35:24.875Z,4.27
2018-06-17T18:37:53.886Z,5.20
2018-06-17T18:40:23.149Z,5.23
2018-06-17T18:42:51.890Z,4.97
2018-06-17T18:45:20.867Z,4.93
2018-06-17T18:47:50.943Z,4.53
2018-06-17T18:50:19.676Z,5.00
2018-06-17T18:52:48.332Z,4.60
2018-06-17T18:55:17.065Z,4.57
2018-06-17T18:57:46.003Z,4.23
2018-06-17T19:00:14.768Z,4.23
2018-06-17T19:02:43.383Z,3.70
2018-06-17T19:05:12.391Z,4.60
2018-06-17T19:07:41.655Z,4.40
2018-06-17T19:10:15.824Z,3.73
2018-06-17T19:12:49.907Z,5.47
2018-06-17T19:15:24.020Z,5.23
2018-06-17T19:17:58.191Z,5.27
2018-06-17T19:20:26.863Z,5.90
2018-06-17T19:22:55.724Z,5.80
2018-06-17T19:25:24.805Z,4.80
2018-06-17T19:27:53.849Z,6.17
2018-06-17T19:30:23.083Z,5.60
2018-06-17T19:32:51.827Z,5.47
2018-06-17T19:35:20.995Z,5.23
2018-06-17T19:37:49.691Z,5.93
2018-06-17T19:40:18.322Z,5.90
2018-06-17T19:42:46.980Z,7.20
2018-06-17T19:45:15.627Z,7.60
2018-06-17T19:47:44.242Z,6.83
2018-06-17T19:50:18.496Z,6.97
2018-06-17T19:52:52.675Z,6.80
2018-06-17T19:55:26.946Z,8.27
2018-06-17T19:58:01.252Z,8.00
2018-06-17T20:00:35.190Z,7.97
2018-06-17T20:03:04.399Z,7.83
2018-06-17T20:05:33.587Z,8.60
2018-06-17T20:08:02.701Z,9.47
2018-06-17T20:10:31.739Z,9.17
2018-06-17T20:13:00.488Z,9.33
2018-06-17T20:15:29.143Z,9.17
2018-06-17T20:17:57.823Z,9.43
2018-06-17T20:20:26.768Z,9.97
2018-06-17T20:22:55.528Z,10.90
2018-06-17T20:25:24.153Z,11.17
2018-06-17T20:27:53.088Z,10.93
2018-06-17T20:30:22.145Z,11.43
2018-06-17T20:32:56.082Z,12.70
2018-06-17T20:35:30.170Z,11.77
2018-06-17T20:38:04.460Z,13.13
2018-06-17T20:40:38.725Z,12.70
2018-06-17T20:43:12.709Z,11.80
2018-06-17T20:45:41.342Z,9.40
2018-06-17T20:48:09.985Z,12.50
2018-06-17T20:50:38.623Z,13.13
2018-06-17T20:53:07.584Z,14.67
2018-06-17T20:55:36.618Z,12.67
2018-06-17T20:58:05.731Z,13.20
2018-06-17T21:00:34.729Z,12.97
2018-06-17T21:03:03.763Z,13.23
2018-06-17T21:05:32.824Z,11.17
2018-06-17T21:08:01.546Z,10.97
2018-06-17T21:10:30.370Z,10.30
2018-06-17T21:12:58.983Z,11.87
2018-06-17T21:15:27.611Z,11.23
2018-06-17T21:17:56.548Z,9.40
2018-06-17T21:20:30.940Z,10.30
2018-06-17T21:23:05.024Z,9.13
2018-06-17T21:25:39.536Z,9.27
2018-06-17T21:28:08.559Z,9.20
2018-06-17T21:30:37.591Z,8.30
2018-06-17T21:33:06.664Z,8.80
2018-06-17T21:35:35.715Z,8.63
2018-06-17T21:38:04.778Z,9.13
2018-06-17T21:40:33.607Z,8.47
2018-06-17T21:43:02.247Z,9.80
2018-06-17T21:45:30.867Z,10.30
2018-06-17T21:47:59.519Z,8.87
2018-06-17T21:50:28.526Z,9.40
2018-06-17T21:52:57.198Z,10.10
2018-06-17T21:55:26.162Z,9.40
2018-06-17T21:57:55.203Z,10.30
2018-06-17T22:00:24.346Z,9.73
2018-06-17T22:02:53.089Z,10.57
2018-06-17T22:05:21.796Z,8.90
2018-06-17T22:07:56.100Z,9.73
2018-06-17T22:10:30.259Z,9.07
2018-06-17T22:12:59.714Z,8.80
2018-06-17T22:17:36.591Z,9.83
2018-06-17T22:20:05.963Z,7.97
2018-06-17T22:22:34.695Z,8.33
2018-06-17T22:25:03.709Z,9.50
2018-06-17T22:27:32.735Z,9.43
2018-06-17T22:30:01.688Z,8.83
2018-06-17T22:32:30.402Z,9.20
2018-06-17T22:34:59.357Z,8.97
2018-06-17T22:37:28.185Z,8.80
2018-06-17T22:39:57.132Z,8.50
2018-06-17T22:42:25.862Z,8.73
2018-06-17T22:44:54.816Z,8.80
2018-06-17T22:47:29.184Z,7.20
2018-06-17T22:49:58.019Z,7.83
2018-06-17T22:52:26.679Z,8.03
2018-06-17T22:54:55.628Z,8.50
2018-06-17T22:57:29.787Z,7.97
2018-06-17T23:00:04.203Z,8.67
2018-06-17T23:02:38.355Z,8.67
2018-06-17T23:07:13.993Z,7.60
2018-06-17T23:09:44.743Z,5.77
2018-06-17T23:12:13.711Z,6.10
2018-06-17T23:14:42.480Z,6.23
2018-06-17T23:17:11.173Z,4.93
2018-06-17T23:19:39.815Z,4.97
2018-06-17T23:22:08.438Z,5.10
2018-06-17T23:24:37.403Z,6.37
2018-06-17T23:27:06.443Z,6.57
2018-06-17T23:29:35.169Z,7.60
2018-06-17T23:32:03.885Z,8.20
2018-06-17T23:34:32.522Z,9.33
2018-06-17T23:37:02.197Z,10.63
2018-06-17T23:39:31.255Z,10.50
2018-06-17T23:42:00.374Z,11.33
2018-06-17T23:44:29.408Z,11.97
2018-06-17T23:49:09.255Z,12.70
2018-06-17T23:51:43.361Z,9.90
2018-06-17T23:54:17.997Z,10.63
2018-06-17T23:56:47.116Z,9.20
2018-06-17T23:59:16.156Z,9.63
